Карточка аэропорта USTR

Внимание!
Информация на этой странице в стадии наполнения.
Если вы не увидели какой-то информации, или заметили неточность - пожалуйста сообщите нам!
Спасибо!
Команда RU-STAFF
Название аэропортаРощино
Название аэропорта (англ.)Roshschino
Превышение378 ft. (115.2 m.)
Координаты57°10.098', 65°19.002'
Высота перехода3000ft
Эшелон переходаQNH⩾1013hPa:FL040; QNH⩾977hPa:FL050; QNH⩽977hPa:FL060
Коды ответчика5101-5137
Зона ОрВДТюмень РПИ (USTV)
Данные METARUSTR 200130Z 12002MPS 1500 0600N R21/0600U FG VV001 16/16 Q1001 R21/290060 R30/290060 TEMPO 1000 SHRA BR VV003 RMK QBB050
Проноз погоды (TAF)USTR 192130Z 1921/2021 12003G14MPS 0300 FG VV002 TEMPO 1921/2003 1500 -TSRA BR BKN002 BKN016CB FM200300 24003G12MPS 6000 BKN016CB TEMPO 2003/2018 VRB15MPS 0500 +TSRA SQ VV003 TEMPO 2018/2021 0300 FG VV002
NOTAMshow/hide NOTAM
AWOS   TABLE

Информация о ВПП

ВПП Длина ВПП (м.) Покрытие Курс ВПП Частота ILS
033003Асфальтобетон34108.3
122704Асфальтобетон121 
213003Асфальтобетон214110.7
302704Асфальтобетон301 

Диспетчерские позиции

Позывной Наименование органа УВД Частота
USTR_R_APPТюмень-Круг126.100
USTR_GNDТюмень-Руление119.000
USTR_TWRТюмень-Старт118.200



Спутниковое изображение